Time;durP1;ratioP1;P1;durP2;ratioP2;P2;SDS_P1;SDS_P2;PMS_P1;PMS_P2;Temp;Humidity;BMP_temperature;BMP_pressure;BME280_temperature;BME280_humidity;BME280_pressure;Samples;Min_cycle;Max_cycle;Signal;HPM_P1;HPM_P2
2022/01/08 00:00:43;;;;;;;19.82;9.03;;;;;;;-1.79;62.17;99959.59;2074756;85;20980;-80
2022/01/08 00:03:44;;;;;;;15.32;7.67;;;;;;;-1.80;62.26;99951.44;2070169;84;21052;-81
2022/01/08 00:06:46;;;;;;;14.95;7.47;;;;;;;-1.81;62.28;99951.88;2072190;84;21029;-79
2022/01/08 00:09:47;;;;;;;17.45;7.42;;;;;;;-1.81;62.32;99956.25;2073264;85;21004;-83
2022/01/08 00:12:52;;;;;;;15.95;8.18;;;;;;;-1.82;62.49;99954.11;2079562;85;21040;-82
2022/01/08 00:15:53;;;;;;;16.37;7.40;;;;;;;-1.83;62.64;99953.75;2071369;85;20982;-79
2022/01/08 00:18:54;;;;;;;16.52;7.85;;;;;;;-1.83;62.80;99945.95;2071135;85;20981;-81
2022/01/08 00:21:56;;;;;;;14.93;7.30;;;;;;;-1.81;62.80;99944.54;2082725;85;21060;-78
2022/01/08 00:24:58;;;;;;;16.97;6.97;;;;;;;-1.81;63.00;99945.38;2084847;84;22472;-81
2022/01/08 00:28:00;;;;;;;17.17;8.73;;;;;;;-1.82;63.09;99945.01;2087623;84;21008;-83
2022/01/08 00:31:03;;;;;;;17.42;7.95;;;;;;;-1.83;63.21;99943.34;2084366;84;21530;-84
2022/01/08 00:34:05;;;;;;;21.73;8.45;;;;;;;-1.83;63.37;99947.69;2088394;84;21008;-82
2022/01/08 00:37:06;;;;;;;15.98;7.17;;;;;;;-1.83;63.51;99949.85;2085483;85;21052;-79
2022/01/08 00:40:11;;;;;;;17.82;8.13;;;;;;;-1.81;63.53;99945.38;2087051;85;21038;-81
2022/01/08 00:43:12;;;;;;;17.12;8.30;;;;;;;-1.81;63.61;99946.67;2092116;85;21027;-83
2022/01/08 00:46:14;;;;;;;25.30;9.75;;;;;;;-1.78;63.74;99943.52;2089993;84;21589;-83
2022/01/08 00:49:16;;;;;;;20.72;9.18;;;;;;;-1.76;63.73;99933.40;2090794;84;21027;-82
2022/01/08 00:52:17;;;;;;;22.82;9.58;;;;;;;-1.73;63.71;99938.88;2088602;84;21011;-84
2022/01/08 00:55:18;;;;;;;25.40;10.43;;;;;;;-1.70;63.85;99942.59;2087581;84;21047;-81
2022/01/08 00:58:20;;;;;;;20.52;9.25;;;;;;;-1.70;63.93;99936.92;2088574;85;21004;-80
2022/01/08 01:01:21;;;;;;;22.55;9.53;;;;;;;-1.65;63.83;99937.95;2086675;84;21016;-83
2022/01/08 01:04:23;;;;;;;24.65;10.60;;;;;;;-1.65;63.92;99944.46;2090364;85;21506;-79
2022/01/08 01:07:25;;;;;;;27.55;10.25;;;;;;;-1.63;64.06;99940.01;2088195;84;21020;-78
2022/01/08 01:10:26;;;;;;;22.87;10.05;;;;;;;-1.64;64.23;99938.31;2087212;84;21003;-79
2022/01/08 01:13:28;;;;;;;19.75;9.05;;;;;;;-1.64;64.27;99934.41;2087538;84;20972;-81
2022/01/08 01:16:29;;;;;;;21.48;9.23;;;;;;;-1.64;64.27;99933.11;2087582;84;21070;-81
2022/01/08 01:19:31;;;;;;;21.17;9.43;;;;;;;-1.62;64.34;99926.06;2086839;85;20991;-83
2022/01/08 01:22:44;;;;;;;24.67;9.60;;;;;;;-1.62;64.44;99922.16;2081863;84;21044;-83
2022/01/08 01:25:40;;;;;;;17.42;8.53;;;;;;;-1.60;64.54;99913.80;2083556;85;21000;-80
2022/01/08 01:41:55;;;;;;;21.57;8.88;;;;;;;-1.47;64.66;99903.45;2081868;85;21055;-83
2022/01/08 01:48:07;;;;;;;21.30;9.50;;;;;;;-1.50;64.95;99912.28;2081712;85;21014;-83
2022/01/08 01:51:19;;;;;;;22.25;7.92;;;;;;;-1.49;64.87;99905.30;2081515;85;21056;-79
2022/01/08 01:54:21;;;;;;;18.27;8.50;;;;;;;-1.52;65.09;99906.36;2081188;85;21300;-80
2022/01/08 01:57:23;;;;;;;16.97;8.55;;;;;;;-1.53;65.31;99909.05;2082954;85;21014;-81
2022/01/08 02:00:24;;;;;;;16.75;8.13;;;;;;;-1.52;65.46;99898.55;2082827;85;20978;-83
2022/01/08 02:03:26;;;;;;;19.57;8.50;;;;;;;-1.51;65.87;99901.52;2079598;84;20949;-81
2022/01/08 02:06:27;;;;;;;16.02;8.60;;;;;;;-1.52;66.16;99896.39;2079216;84;21484;-81
2022/01/08 02:09:28;;;;;;;18.50;8.88;;;;;;;-1.49;66.39;99898.80;2083449;84;21026;-83
2022/01/08 02:12:33;;;;;;;25.23;9.98;;;;;;;-1.48;66.63;99895.28;2080188;84;21049;-85
2022/01/08 02:15:35;;;;;;;19.67;10.98;;;;;;;-1.56;67.21;99893.16;2081531;84;20986;-81
2022/01/08 02:18:36;;;;;;;18.27;8.93;;;;;;;-1.68;67.38;99878.31;2080280;85;21511;-83
2022/01/08 02:21:38;;;;;;;17.73;8.63;;;;;;;-1.79;68.49;99883.34;2079897;84;21024;-82
2022/01/08 02:24:39;;;;;;;20.17;8.90;;;;;;;-1.94;69.38;99879.44;2081528;84;20997;-85
2022/01/08 02:27:41;;;;;;;18.27;9.55;;;;;;;-2.05;69.58;99873.58;2081101;84;21005;-78
2022/01/08 02:30:42;;;;;;;20.45;9.45;;;;;;;-2.15;69.74;99869.85;2082882;85;21004;-81
2022/01/08 02:33:44;;;;;;;16.97;9.93;;;;;;;-2.22;69.86;99862.50;2083418;84;21435;-82
2022/01/08 02:36:45;;;;;;;20.25;9.28;;;;;;;-2.27;70.34;99874.49;2084504;84;21025;-81
2022/01/08 02:39:49;;;;;;;16.77;8.08;;;;;;;-2.30;70.72;99885.91;2079685;84;21071;-80
2022/01/08 02:43:01;;;;;;;18.87;9.35;;;;;;;-2.29;70.41;99885.44;2081966;84;21009;-82
2022/01/08 02:46:00;;;;;;;22.13;9.73;;;;;;;-2.25;70.71;99877.84;2080246;84;21001;-83
2022/01/08 02:49:01;;;;;;;18.73;9.15;;;;;;;-2.28;72.06;99867.60;2082372;84;20999;-82
2022/01/08 02:52:04;;;;;;;16.95;8.60;;;;;;;-2.32;71.88;99870.03;2083149;84;21056;-82
2022/01/08 02:55:07;;;;;;;19.67;9.28;;;;;;;-2.34;71.85;99866.20;2081535;84;21507;-79
2022/01/08 02:58:09;;;;;;;23.45;9.63;;;;;;;-2.36;73.05;99852.95;2080300;84;21073;-82
2022/01/08 03:01:10;;;;;;;17.10;8.88;;;;;;;-2.39;72.96;99852.67;2078745;84;21025;-82
2022/01/08 03:04:13;;;;;;;18.55;8.85;;;;;;;-2.41;73.86;99838.92;2083052;84;21089;-85
2022/01/08 03:07:14;;;;;;;16.82;8.18;;;;;;;-2.42;73.89;99851.56;2079070;84;20980;-81
2022/01/08 03:10:17;;;;;;;17.45;8.50;;;;;;;-2.44;73.45;99853.41;2083241;85;21005;-83
2022/01/08 03:13:19;;;;;;;15.80;9.68;;;;;;;-2.42;73.79;99846.36;2079499;84;21037;-82
2022/01/08 03:16:21;;;;;;;17.30;8.90;;;;;;;-2.42;73.38;99842.46;2083265;85;21024;-80
2022/01/08 03:19:23;;;;;;;21.00;8.53;;;;;;;-2.40;73.29;99836.69;2077206;85;21014;-83
2022/01/08 03:22:25;;;;;;;20.88;8.68;;;;;;;-2.36;73.42;99836.06;2080638;84;21481;-84
2022/01/08 03:25:27;;;;;;;14.53;8.73;;;;;;;-2.33;73.18;99838.02;2073592;85;21037;-80
2022/01/08 03:28:28;;;;;;;17.50;9.45;;;;;;;-2.28;73.32;99837.72;2068086;85;21067;-83
2022/01/08 03:31:29;;;;;;;15.93;8.48;;;;;;;-2.25;73.22;99833.66;2071233;84;21509;-82
2022/01/08 03:34:31;;;;;;;20.20;9.95;;;;;;;-2.21;73.12;99835.60;2070207;84;21022;-84
2022/01/08 03:37:32;;;;;;;14.35;8.23;;;;;;;-2.20;73.21;99836.80;2069758;84;21125;-81
2022/01/08 03:40:34;;;;;;;19.75;9.65;;;;;;;-2.18;73.24;99821.12;2074959;85;20991;-81
2022/01/08 03:43:35;;;;;;;20.55;8.68;;;;;;;-2.16;73.14;99828.37;2070652;84;21009;-84
2022/01/08 03:46:37;;;;;;;19.32;9.00;;;;;;;-2.16;73.14;99823.17;2074022;84;21048;-84
2022/01/08 03:49:39;;;;;;;16.35;8.35;;;;;;;-2.15;73.56;99820.45;2073656;85;21013;-81
2022/01/08 03:52:40;;;;;;;18.15;8.48;;;;;;;-2.17;73.25;99821.01;2076585;84;20962;-82
2022/01/08 03:55:42;;;;;;;13.50;8.10;;;;;;;-2.15;73.25;99820.45;2073524;84;21017;-84
2022/01/08 03:58:43;;;;;;;17.17;8.05;;;;;;;-2.12;73.28;99818.14;2075677;85;21032;-83
2022/01/08 04:01:45;;;;;;;15.90;8.73;;;;;;;-2.10;73.27;99809.33;2073651;84;21005;-84
2022/01/08 04:04:48;;;;;;;15.63;8.23;;;;;;;-2.09;73.42;99807.55;2072188;85;20993;-84
2022/01/08 04:07:49;;;;;;;12.70;7.78;;;;;;;-2.10;73.43;99817.13;2074530;85;21076;-82
2022/01/08 04:10:51;;;;;;;17.35;8.65;;;;;;;-2.07;73.37;99816.10;2072915;85;21095;-81
2022/01/08 04:13:54;;;;;;;19.52;8.93;;;;;;;-2.05;73.29;99810.35;2074221;85;21049;-83
2022/01/08 04:16:56;;;;;;;16.73;7.85;;;;;;;-2.04;73.28;99816.74;2069706;85;21045;-80
2022/01/08 04:19:57;;;;;;;16.30;8.18;;;;;;;-2.02;73.37;99816.66;2071566;85;21005;-83
2022/01/08 04:23:04;;;;;;;17.30;7.97;;;;;;;-2.00;73.22;99813.95;2073326;84;21040;-83
2022/01/08 04:26:06;;;;;;;15.58;7.92;;;;;;;-2.00;73.39;99804.38;2069360;84;21310;-84
2022/01/08 04:29:07;;;;;;;15.35;7.72;;;;;;;-1.99;73.15;99793.06;2076437;85;21275;-81
2022/01/08 04:32:09;;;;;;;15.05;7.85;;;;;;;-1.99;73.18;99784.44;2067540;85;21563;-81
2022/01/08 04:35:10;;;;;;;16.80;8.43;;;;;;;-1.97;73.33;99786.02;2068996;84;20990;-83
2022/01/08 04:38:12;;;;;;;17.10;8.33;;;;;;;-1.96;73.30;99782.95;2073627;84;21155;-81
2022/01/08 04:41:13;;;;;;;19.12;7.97;;;;;;;-1.97;73.38;99782.11;2074250;85;21004;-81
2022/01/08 04:44:15;;;;;;;15.93;7.62;;;;;;;-1.96;73.30;99779.87;2070838;85;21004;-81
2022/01/08 04:47:16;;;;;;;16.85;7.58;;;;;;;-1.96;73.42;99775.97;2070650;85;21004;-79
2022/01/08 04:50:18;;;;;;;13.50;7.62;;;;;;;-1.95;73.48;99779.41;2069606;84;21606;-81
2022/01/08 04:53:19;;;;;;;14.18;7.37;;;;;;;-1.95;73.48;99775.03;2074356;85;20971;-83
2022/01/08 04:56:21;;;;;;;15.70;7.87;;;;;;;-1.94;73.30;99771.95;2073997;85;21028;-81
2022/01/08 04:59:22;;;;;;;16.48;7.87;;;;;;;-1.90;73.31;99791.66;2073438;85;21518;-84
2022/01/08 05:02:23;;;;;;;17.95;8.63;;;;;;;-1.86;73.25;99790.09;2072664;84;21013;-82
2022/01/08 05:05:26;;;;;;;13.15;7.78;;;;;;;-1.82;73.24;99794.15;2072664;85;20960;-80
2022/01/08 05:08:27;;;;;;;15.08;7.30;;;;;;;-1.77;73.12;99787.81;2076260;84;21544;-85
2022/01/08 05:11:29;;;;;;;15.88;8.10;;;;;;;-1.74;73.15;99783.27;2075600;85;21503;-82
2022/01/08 05:14:31;;;;;;;15.13;7.75;;;;;;;-1.71;73.06;99784.84;2077287;85;21032;-82
2022/01/08 05:17:39;;;;;;;19.70;9.53;;;;;;;-1.67;73.04;99798.02;2073103;85;21042;-83
2022/01/08 05:20:39;;;;;;;17.95;8.18;;;;;;;-1.61;73.07;99785.91;2075155;84;21021;-79
2022/01/08 05:23:40;;;;;;;23.67;9.90;;;;;;;-1.58;72.97;99792.23;2068485;84;21076;-83
2022/01/08 05:26:41;;;;;;;21.12;9.68;;;;;;;-1.55;72.93;99786.83;2070783;85;21065;-83
2022/01/08 05:29:48;;;;;;;19.07;9.65;;;;;;;-1.54;72.79;99780.70;2072875;85;21456;-81
2022/01/08 05:32:50;;;;;;;19.65;10.58;;;;;;;-1.55;72.92;99785.52;2068684;84;21511;-81
2022/01/08 05:35:52;;;;;;;16.32;9.03;;;;;;;-1.55;72.95;99779.48;2069623;85;20992;-83
2022/01/08 05:38:54;;;;;;;18.17;8.88;;;;;;;-1.55;72.86;99772.52;2071733;85;21124;-81
2022/01/08 05:41:55;;;;;;;22.15;10.20;;;;;;;-1.56;72.91;99774.76;2072635;84;21040;-82
2022/01/08 05:44:57;;;;;;;26.45;10.90;;;;;;;-1.56;72.88;99779.96;2072660;85;21012;-82
2022/01/08 05:47:58;;;;;;;23.07;9.83;;;;;;;-1.54;72.97;99779.41;2072317;84;20953;-83
2022/01/08 05:51:00;;;;;;;16.93;9.20;;;;;;;-1.53;72.84;99776.33;2071496;85;21037;-84
2022/01/08 05:54:01;;;;;;;15.32;8.65;;;;;;;-1.52;72.87;99773.64;2072598;84;22061;-84
2022/01/08 05:57:03;;;;;;;17.75;8.33;;;;;;;-1.51;72.84;99771.40;2074859;84;21022;-84
2022/01/08 06:00:07;;;;;;;17.90;8.33;;;;;;;-1.49;72.80;99773.45;2072500;85;21080;-81
2022/01/08 06:03:12;;;;;;;16.50;7.95;;;;;;;-1.47;72.77;99771.55;2075398;84;21075;-86
2022/01/08 06:06:13;;;;;;;13.48;7.97;;;;;;;-1.45;72.80;99781.41;2073152;85;21005;-85
2022/01/08 06:09:15;;;;;;;15.45;8.35;;;;;;;-1.45;72.75;99784.02;2073204;85;21081;-85
2022/01/08 06:12:16;;;;;;;16.12;8.10;;;;;;;-1.41;72.79;99788.11;2072670;84;20977;-83
2022/01/08 06:15:18;;;;;;;18.80;9.00;;;;;;;-1.39;72.71;99789.29;2070722;85;20961;-81
2022/01/08 06:18:19;;;;;;;14.83;7.92;;;;;;;-1.41;72.67;99795.91;2075330;85;20977;-82
2022/01/08 06:21:21;;;;;;;13.85;8.43;;;;;;;-1.38;72.72;99792.25;2073553;85;20967;-80
2022/01/08 06:24:22;;;;;;;15.50;8.28;;;;;;;-1.37;72.69;99793.47;2072472;84;21063;-85
2022/01/08 06:27:24;;;;;;;17.92;8.43;;;;;;;-1.37;72.77;99784.36;2073973;84;20969;-81
2022/01/08 06:30:25;;;;;;;15.63;7.85;;;;;;;-1.35;72.76;99794.69;2074051;85;21015;-83
2022/01/08 06:33:27;;;;;;;16.35;7.55;;;;;;;-1.32;72.78;99785.81;2069927;84;21444;-82
2022/01/08 06:36:28;;;;;;;13.28;7.78;;;;;;;-1.33;72.77;99791.96;2075202;84;21618;-82
2022/01/08 06:39:30;;;;;;;11.93;7.67;;;;;;;-1.32;72.78;99792.32;2074083;84;21047;-81
2022/01/08 06:42:31;;;;;;;17.90;8.43;;;;;;;-1.29;72.87;99806.47;2071856;85;20962;-81
2022/01/08 06:45:32;;;;;;;20.43;8.63;;;;;;;-1.24;72.87;99806.54;2071206;85;21048;-84
2022/01/08 06:48:34;;;;;;;14.15;8.08;;;;;;;-1.22;72.85;99811.16;2070977;85;21032;-83
2022/01/08 06:51:36;;;;;;;19.85;10.23;;;;;;;-1.15;72.89;99815.52;2074602;85;21004;-80
2022/01/08 06:54:37;;;;;;;16.70;9.13;;;;;;;-1.07;72.88;99811.95;2069080;85;21038;-79
2022/01/08 06:57:39;;;;;;;21.57;12.35;;;;;;;-1.08;72.84;99814.64;2072656;84;21028;-80
2022/01/08 07:00:40;;;;;;;25.80;15.10;;;;;;;-1.09;72.84;99815.12;2074114;85;21455;-79
2022/01/08 07:03:42;;;;;;;23.70;13.30;;;;;;;-1.12;72.92;99810.11;2072656;84;21040;-79
2022/01/08 07:06:43;;;;;;;16.73;9.73;;;;;;;-1.13;73.00;99808.42;2072304;85;21424;-80
2022/01/08 07:09:45;;;;;;;18.32;9.73;;;;;;;-1.14;73.06;99805.46;2069093;85;21012;-79
2022/01/08 07:12:46;;;;;;;20.08;10.95;;;;;;;-1.15;73.09;99812.92;2070137;84;21007;-84
2022/01/08 07:15:48;;;;;;;25.72;13.22;;;;;;;-1.15;73.23;99812.92;2069756;85;21528;-86
2022/01/08 07:18:49;;;;;;;27.10;13.98;;;;;;;-1.16;73.24;99803.42;2073049;85;21322;-81
2022/01/08 07:21:51;;;;;;;19.57;10.53;;;;;;;-1.16;73.37;99809.92;2073975;84;20999;-79
2022/01/08 07:24:52;;;;;;;21.15;10.65;;;;;;;-1.17;73.46;99813.00;2081974;85;21572;-81
2022/01/08 07:27:53;;;;;;;21.87;12.23;;;;;;;-1.14;73.48;99815.88;2078163;85;21025;-83
2022/01/08 07:30:55;;;;;;;21.97;12.13;;;;;;;-1.11;73.59;99820.89;2082566;85;21008;-82
2022/01/08 07:33:57;;;;;;;23.25;13.00;;;;;;;-1.05;73.66;99820.95;2081825;84;21032;-81
2022/01/08 07:36:58;;;;;;;21.10;10.28;;;;;;;-0.98;73.68;99824.37;2079291;84;21016;-82
2022/01/08 07:40:00;;;;;;;17.95;10.53;;;;;;;-0.93;73.66;99818.84;2075244;85;21091;-82
2022/01/08 07:43:01;;;;;;;19.23;10.70;;;;;;;-0.87;73.68;99821.51;2080334;85;21027;-83
2022/01/08 07:46:03;;;;;;;20.77;10.38;;;;;;;-0.82;73.82;99822.05;2080818;85;20981;-81
2022/01/08 07:49:04;;;;;;;22.52;11.25;;;;;;;-0.82;73.74;99822.88;2080202;85;21000;-81
2022/01/08 07:52:06;;;;;;;19.95;10.55;;;;;;;-0.81;73.72;99819.34;2083713;85;21027;-83
2022/01/08 07:55:09;;;;;;;19.17;10.80;;;;;;;-0.77;73.75;99822.58;2079013;85;21079;-84
2022/01/08 07:58:10;;;;;;;17.92;9.95;;;;;;;-0.71;74.00;99826.91;2082330;84;20976;-78
2022/01/08 08:01:11;;;;;;;20.32;10.80;;;;;;;-0.60;73.84;99826.19;2083426;84;21036;-82
2022/01/08 08:04:13;;;;;;;18.45;10.18;;;;;;;-0.55;73.77;99831.94;2080611;84;21570;-82
2022/01/08 08:07:27;;;;;;;16.25;10.25;;;;;;;-0.54;73.75;99828.38;2079766;84;21055;-81
2022/01/08 08:10:29;;;;;;;19.20;10.32;;;;;;;-0.50;73.67;99827.73;2081266;84;21108;-78
2022/01/08 08:13:31;;;;;;;18.75;10.45;;;;;;;-0.47;73.66;99823.61;2082695;84;21084;-79
2022/01/08 08:16:32;;;;;;;21.30;11.45;;;;;;;-0.47;73.65;99815.31;2083005;84;20999;-80
2022/01/08 08:19:34;;;;;;;21.68;10.82;;;;;;;-0.49;73.65;99818.96;2084086;84;21022;-80
2022/01/08 08:22:35;;;;;;;17.32;10.25;;;;;;;-0.48;73.68;99821.92;2074826;84;21016;-80
2022/01/08 08:25:36;;;;;;;18.87;10.38;;;;;;;-0.48;73.61;99816.27;2066291;85;20989;-79
2022/01/08 08:28:38;;;;;;;16.62;10.45;;;;;;;-0.45;73.70;99817.83;2062585;85;21551;-79
2022/01/08 08:31:40;;;;;;;18.20;9.75;;;;;;;-0.40;73.70;99825.33;2066390;85;20989;-81
2022/01/08 08:34:41;;;;;;;19.05;9.73;;;;;;;-0.38;73.64;99820.84;2066770;85;21054;-80
2022/01/08 08:37:43;;;;;;;18.98;10.58;;;;;;;-0.32;73.65;99824.34;2065070;85;21103;-83
2022/01/08 08:40:44;;;;;;;17.77;10.90;;;;;;;-0.27;73.58;99819.17;2064864;85;21079;-83
2022/01/08 08:43:46;;;;;;;15.45;9.28;;;;;;;-0.23;73.54;99811.97;2061980;85;20965;-80
2022/01/08 08:46:47;;;;;;;16.27;9.50;;;;;;;-0.21;73.42;99804.88;2064764;85;21468;-82
2022/01/08 08:49:49;;;;;;;19.05;11.00;;;;;;;-0.21;73.53;99808.79;2060151;85;21514;-81
2022/01/08 08:52:53;;;;;;;34.67;19.80;;;;;;;-0.23;73.51;99810.66;2064817;85;21504;-81
2022/01/08 08:55:55;;;;;;;19.92;10.70;;;;;;;-0.24;73.53;99811.61;2066516;85;21080;-82
2022/01/08 08:58:57;;;;;;;18.60;10.05;;;;;;;-0.25;73.49;99802.96;2062278;85;21001;-80
2022/01/08 09:01:58;;;;;;;20.02;10.43;;;;;;;-0.26;73.54;99796.53;2066522;85;21064;-82
2022/01/08 09:05:00;;;;;;;23.92;11.65;;;;;;;-0.26;73.58;99806.48;2064932;85;21006;-81
2022/01/08 09:08:03;;;;;;;18.77;10.95;;;;;;;-0.28;73.62;99801.05;2070242;85;21005;-79
2022/01/08 09:11:04;;;;;;;18.57;10.55;;;;;;;-0.26;73.74;99805.19;2064105;85;21040;-79
2022/01/08 09:14:06;;;;;;;19.17;11.18;;;;;;;-0.21;73.80;99806.19;2065210;85;21033;-80
2022/01/08 09:17:08;;;;;;;20.23;11.03;;;;;;;-0.15;73.76;99809.66;2068485;85;21025;-82
2022/01/08 09:20:10;;;;;;;22.93;10.88;;;;;;;-0.09;73.77;99807.94;2064096;85;21040;-83
2022/01/08 09:23:12;;;;;;;20.85;10.20;;;;;;;-0.01;73.79;99806.11;2070765;84;21512;-82
2022/01/08 09:26:13;;;;;;;18.50;10.43;;;;;;;0.08;73.76;99805.45;2066267;85;21023;-82
2022/01/08 09:29:16;;;;;;;22.62;11.35;;;;;;;0.18;73.66;99808.27;2065766;85;21076;-83
2022/01/08 09:32:18;;;;;;;22.37;12.65;;;;;;;0.25;73.51;99810.79;2067463;85;21067;-84
2022/01/08 09:35:21;;;;;;;23.50;13.13;;;;;;;0.32;73.55;99809.42;2065852;85;21036;-80
2022/01/08 09:38:22;;;;;;;25.55;13.08;;;;;;;0.42;73.58;99810.90;2066269;85;21044;-81
2022/01/08 09:41:24;;;;;;;23.87;13.60;;;;;;;0.52;73.49;99812.40;2065249;85;21004;-84
2022/01/08 09:44:26;;;;;;;30.02;16.77;;;;;;;0.60;73.42;99808.77;2066337;85;21064;-83
2022/01/08 09:47:27;;;;;;;25.52;13.70;;;;;;;0.67;73.38;99819.11;2065807;85;21527;-82
2022/01/08 09:50:29;;;;;;;31.82;14.35;;;;;;;0.73;73.32;99813.44;2067786;85;21028;-83
2022/01/08 09:53:30;;;;;;;26.05;14.18;;;;;;;0.80;73.24;99806.02;2067683;85;21056;-84
2022/01/08 09:56:32;;;;;;;30.60;15.45;;;;;;;0.83;72.99;99811.84;2069873;85;20993;-84
2022/01/08 09:59:34;;;;;;;25.00;13.70;;;;;;;0.86;73.05;99811.61;2067659;85;21024;-81
2022/01/08 10:02:35;;;;;;;30.75;16.12;;;;;;;0.92;72.97;99808.20;2064953;85;20977;-80
2022/01/08 10:05:48;;;;;;;30.68;15.03;;;;;;;0.96;72.87;99804.39;2065262;85;21331;-81
2022/01/08 10:08:50;;;;;;;28.07;13.83;;;;;;;0.97;72.85;99806.08;2064739;85;20993;-80
2022/01/08 10:11:53;;;;;;;23.87;13.58;;;;;;;1.02;72.83;99809.20;2065283;85;21034;-81
2022/01/08 10:18:36;;;;;;;30.43;15.20;;;;;;;1.07;72.61;99801.83;2065755;85;21024;-82
2022/01/08 10:21:39;;;;;;;26.30;16.15;;;;;;;1.09;72.53;99805.16;2067637;85;21015;-80
2022/01/08 10:24:40;;;;;;;28.83;15.00;;;;;;;1.04;72.42;99802.05;2063395;84;21005;-79
2022/01/08 10:27:43;;;;;;;53.05;26.90;;;;;;;1.05;72.45;99803.73;2068560;85;21083;-81
2022/01/08 10:30:45;;;;;;;37.73;20.17;;;;;;;1.08;72.57;99803.51;2035409;85;21001;-81
2022/01/08 10:33:51;;;;;;;34.10;18.57;;;;;;;1.12;72.47;99802.32;2069255;85;21045;-82
2022/01/08 10:37:05;;;;;;;34.65;19.12;;;;;;;1.09;72.31;99808.61;2067545;85;21012;-80
2022/01/08 10:40:08;;;;;;;33.75;17.27;;;;;;;1.10;72.35;99798.53;2049229;85;21044;-82
2022/01/08 10:43:29;;;;;;;23.85;13.85;;;;;;;1.18;72.46;99793.19;2068037;85;21644;-80
2022/01/08 10:46:31;;;;;;;27.17;15.23;;;;;;;1.25;72.46;99791.31;2062410;85;21021;-80
2022/01/08 10:49:46;;;;;;;30.20;14.80;;;;;;;1.33;72.48;99785.04;2064315;85;21044;-81
2022/01/08 10:52:48;;;;;;;25.40;14.35;;;;;;;1.39;72.33;99780.30;2066913;85;21574;-81
2022/01/08 10:55:49;;;;;;;28.47;15.05;;;;;;;1.49;72.38;99782.56;2065058;85;21035;-79
2022/01/08 10:58:54;;;;;;;26.68;13.93;;;;;;;1.55;72.17;99780.81;2068282;85;21020;-79
2022/01/08 11:02:11;;;;;;;23.32;12.65;;;;;;;1.59;72.09;99786.63;2052648;85;21050;-82
2022/01/08 11:05:14;;;;;;;24.92;14.40;;;;;;;1.59;71.88;99784.84;2066042;85;21024;-84
2022/01/08 11:08:16;;;;;;;32.20;19.30;;;;;;;1.60;72.05;99776.03;2069795;85;20985;-81
2022/01/08 11:11:17;;;;;;;26.15;15.43;;;;;;;1.68;72.11;99773.66;2069044;85;21539;-83
2022/01/08 11:17:38;;;;;;;33.98;19.77;;;;;;;1.77;71.85;99766.89;2059101;85;21024;-81
2022/01/08 11:20:41;;;;;;;44.80;27.48;;;;;;;1.73;71.73;99764.16;2067260;85;21037;-84
2022/01/08 11:23:43;;;;;;;31.73;19.52;;;;;;;1.74;71.90;99762.72;2072626;84;21504;-83
2022/01/08 11:26:47;;;;;;;39.18;23.83;;;;;;;1.74;71.77;99762.72;2076642;84;21511;-83
2022/01/08 11:30:03;;;;;;;32.53;17.65;;;;;;;1.79;71.88;99754.53;2070807;84;22234;-82
2022/01/08 11:33:15;;;;;;;25.88;13.62;;;;;;;1.86;71.79;99751.80;2059050;85;21059;-81
2022/01/08 11:36:14;;;;;;;28.73;15.10;;;;;;;1.94;71.71;99754.66;2076216;85;21000;-85
2022/01/08 11:39:15;;;;;;;41.08;19.02;;;;;;;2.01;71.24;99750.59;2074442;84;20999;-80
2022/01/08 11:42:22;;;;;;;43.33;20.48;;;;;;;2.05;71.43;99748.55;2077066;85;21547;-83
2022/01/08 11:45:32;;;;;;;56.02;24.77;;;;;;;2.10;71.40;99739.03;2072324;85;21004;-84
2022/01/08 11:48:43;;;;;;;41.18;18.57;;;;;;;2.19;71.47;99748.28;2071113;84;21013;-81
2022/01/08 11:51:45;;;;;;;24.40;14.07;;;;;;;2.21;71.22;99731.98;2075155;84;21023;-81
2022/01/08 11:54:49;;;;;;;35.35;17.65;;;;;;;2.24;71.14;99734.84;2076252;84;21103;-85
2022/01/08 11:57:58;;;;;;;28.27;14.55;;;;;;;2.26;71.00;99736.87;2074560;85;21027;-81
2022/01/08 12:01:13;;;;;;;22.27;12.95;;;;;;;2.24;71.01;99722.58;2071437;84;21028;-84
2022/01/08 12:04:35;;;;;;;19.82;12.28;;;;;;;2.28;70.95;99728.42;2075083;85;21001;-81
2022/01/08 12:07:47;;;;;;;23.65;13.53;;;;;;;2.29;70.92;99724.84;2073556;84;20945;-81
2022/01/08 12:10:56;;;;;;;23.22;14.15;;;;;;;2.30;70.75;99716.50;2072371;84;21543;-85
2022/01/08 12:14:10;;;;;;;21.70;13.32;;;;;;;2.32;70.58;99717.22;2077627;84;21067;-82
2022/01/08 12:17:20;;;;;;;22.77;13.50;;;;;;;2.31;70.61;99697.20;2071602;85;21013;-83
2022/01/08 12:20:45;;;;;;;22.58;12.40;;;;;;;2.32;70.61;99693.17;2072440;85;21001;-83
2022/01/08 12:23:51;;;;;;;18.75;11.35;;;;;;;2.34;70.46;99686.52;2071120;83;21005;-84
2022/01/08 12:26:54;;;;;;;22.02;11.65;;;;;;;2.39;70.42;99685.19;2044056;85;21046;-85
2022/01/08 12:29:56;;;;;;;20.62;11.45;;;;;;;2.40;69.93;99678.16;2062188;85;21032;-83
2022/01/08 12:33:20;;;;;;;19.73;12.18;;;;;;;2.34;69.79;99676.04;2042488;85;21015;-82
2022/01/08 12:36:32;;;;;;;20.45;11.75;;;;;;;2.20;69.53;99671.44;2067075;85;21023;-81
2022/01/08 12:39:50;;;;;;;22.50;11.48;;;;;;;2.08;69.57;99680.73;2065163;85;21521;-81
2022/01/08 12:42:51;;;;;;;19.45;11.57;;;;;;;2.04;70.18;99680.16;2068198;85;20981;-80
2022/01/08 12:46:13;;;;;;;29.67;14.28;;;;;;;2.13;70.26;99671.56;2068761;85;21685;-82
2022/01/08 12:49:15;;;;;;;26.52;13.58;;;;;;;2.22;70.36;99676.53;2064300;85;21870;-81
2022/01/08 12:52:17;;;;;;;22.10;13.00;;;;;;;2.35;70.41;99670.66;2069141;85;21060;-82
2022/01/08 12:55:18;;;;;;;21.80;11.55;;;;;;;2.48;70.28;99674.43;2061949;85;21015;-80
2022/01/08 12:58:30;;;;;;;18.45;10.78;;;;;;;2.58;69.82;99661.40;2067061;85;21001;-80
2022/01/08 13:01:32;;;;;;;21.68;10.80;;;;;;;2.63;69.36;99652.69;2064055;85;21460;-84
2022/01/08 13:04:33;;;;;;;21.80;12.45;;;;;;;2.55;68.56;99652.00;2069477;85;21030;-85
2022/01/08 13:07:35;;;;;;;19.73;10.65;;;;;;;2.44;69.26;99649.44;2065349;85;20977;-84
2022/01/08 13:10:36;;;;;;;20.68;10.23;;;;;;;2.44;69.37;99648.95;2063261;85;21127;-80
2022/01/08 13:13:51;;;;;;;18.90;11.40;;;;;;;2.34;68.62;99648.06;2066310;85;21008;-85
2022/01/08 13:16:54;;;;;;;21.62;11.90;;;;;;;2.20;69.11;99649.19;2065100;85;21028;-81
2022/01/08 13:20:05;;;;;;;17.57;9.73;;;;;;;2.12;69.04;99651.59;2043152;85;21009;-80
2022/01/08 13:23:06;;;;;;;;;;;;;;;2.03;68.99;99651.03;2065122;85;20985;-81
2022/01/08 13:26:08;;;;;;;24.67;10.80;;;;;;;1.96;68.65;99648.54;2069962;85;20117;-82
2022/01/08 13:29:32;;;;;;;12.68;7.83;;;;;;;1.94;69.03;99639.97;2075197;85;21045;-81
2022/01/08 13:32:35;;;;;;;13.68;8.05;;;;;;;1.96;68.57;99646.75;2069066;85;21563;-81
2022/01/08 13:35:36;;;;;;;16.12;8.58;;;;;;;1.97;68.23;99634.04;2071254;84;21020;-83
2022/01/08 13:38:40;;;;;;;20.35;10.40;;;;;;;1.98;68.36;99636.17;2074603;84;20998;-81
2022/01/08 13:41:41;;;;;;;17.67;8.95;;;;;;;1.97;68.66;99632.73;2076039;84;21056;-80
2022/01/08 13:45:09;;;;;;;14.60;9.48;;;;;;;2.00;68.05;99623.32;2071578;85;21028;-81
2022/01/08 13:48:11;;;;;;;19.37;10.28;;;;;;;2.00;68.77;99629.04;2073494;85;21017;-84
2022/01/08 13:51:13;;;;;;;14.60;9.63;;;;;;;2.01;68.67;99621.53;2076071;84;20985;-82
2022/01/08 13:54:15;;;;;;;21.12;10.82;;;;;;;2.02;68.65;99625.80;2077831;85;21554;-81
2022/01/08 13:57:19;;;;;;;21.02;10.80;;;;;;;1.98;68.48;99617.86;2072050;85;21027;-83
2022/01/08 14:00:31;;;;;;;19.45;9.85;;;;;;;1.93;68.67;99622.14;2073041;84;21036;-81
2022/01/08 14:03:47;;;;;;;16.95;9.75;;;;;;;1.91;68.75;99628.45;2074099;84;21036;-79
2022/01/08 14:06:49;;;;;;;17.90;10.05;;;;;;;1.81;68.50;99629.67;2072704;84;21664;-82
2022/01/08 14:09:59;;;;;;;13.85;8.60;;;;;;;1.74;68.69;99629.31;2076247;84;20965;-80
2022/01/08 14:13:14;;;;;;;17.35;9.78;;;;;;;1.68;68.32;99626.37;2076602;84;21001;-80
2022/01/08 14:16:15;;;;;;;20.00;10.82;;;;;;;1.59;68.65;99619.26;2074726;84;21008;-82
2022/01/08 14:19:20;;;;;;;20.17;11.28;;;;;;;1.56;68.93;99624.25;2072810;85;21025;-80
2022/01/08 14:22:27;;;;;;;18.77;10.48;;;;;;;1.48;68.81;99612.25;2076903;84;22256;-83
2022/01/08 14:25:26;;;;;;;19.45;10.30;;;;;;;1.40;68.92;99618.56;2078944;84;21084;-82
2022/01/08 14:28:30;;;;;;;19.85;10.72;;;;;;;1.37;69.07;99619.63;2079488;84;21073;-82
2022/01/08 14:31:32;;;;;;;22.02;12.03;;;;;;;1.30;69.09;99619.28;2079926;84;21039;-81
2022/01/08 14:34:52;;;;;;;19.77;10.90;;;;;;;1.28;69.21;99622.48;2079204;85;21000;-82